createdAt,value
2023-02-11T00:01:21.648Z,8.83
2023-02-11T00:03:48.914Z,8.83
2023-02-11T00:06:16.189Z,8.89
2023-02-11T00:08:43.447Z,9.29
2023-02-11T00:11:13.568Z,9.17
2023-02-11T00:13:42.648Z,9.11
2023-02-11T00:16:12.368Z,9.01
2023-02-11T00:18:40.092Z,8.92
2023-02-11T00:21:08.414Z,8.95
2023-02-11T00:23:36.508Z,8.82
2023-02-11T00:26:05.243Z,8.87
2023-02-11T00:28:32.481Z,8.84
2023-02-11T00:31:01.411Z,8.85
2023-02-11T00:33:28.668Z,8.82
2023-02-11T00:35:56.309Z,8.85
2023-02-11T00:38:23.486Z,8.79
2023-02-11T00:40:50.604Z,8.82
2023-02-11T00:43:17.666Z,8.75
2023-02-11T00:45:44.890Z,8.61
2023-02-11T00:48:13.625Z,8.61
2023-02-11T00:50:40.885Z,8.57
2023-02-11T00:53:08.301Z,8.56
2023-02-11T00:55:35.550Z,8.56
2023-02-11T00:58:02.744Z,8.54
2023-02-11T01:00:29.886Z,8.45
2023-02-11T01:02:57.066Z,8.47
2023-02-11T01:05:25.856Z,8.54
2023-02-11T01:07:53.090Z,8.66
2023-02-11T01:10:20.372Z,8.73
2023-02-11T01:12:48.055Z,8.66
2023-02-11T01:15:17.601Z,8.73
2023-02-11T01:17:45.102Z,8.67
2023-02-11T01:20:16.226Z,8.68
2023-02-11T01:22:44.954Z,8.59
2023-02-11T01:25:12.056Z,8.64
2023-02-11T01:27:39.435Z,8.70
2023-02-11T01:30:08.733Z,8.69
2023-02-11T01:32:36.578Z,8.67
2023-02-11T01:35:04.496Z,8.81
2023-02-11T01:37:33.908Z,8.87
2023-02-11T01:40:04.460Z,8.75
2023-02-11T01:42:32.659Z,8.67
2023-02-11T01:45:22.472Z,8.74
2023-02-11T01:47:49.578Z,8.61
2023-02-11T01:50:17.175Z,8.55
2023-02-11T01:52:45.176Z,8.64
2023-02-11T01:55:14.658Z,8.68
2023-02-11T01:57:47.657Z,8.79
2023-02-11T02:00:20.442Z,8.87
2023-02-11T02:02:54.969Z,8.89
2023-02-11T02:05:35.396Z,8.93
2023-02-11T02:08:11.800Z,8.93
2023-02-11T02:10:43.281Z,9.01
2023-02-11T02:13:11.114Z,8.98
2023-02-11T02:15:40.585Z,9.01
2023-02-11T02:18:33.553Z,9.00
2023-02-11T02:21:33.912Z,9.09
2023-02-11T02:24:28.797Z,9.07
2023-02-11T02:27:37.978Z,9.07
2023-02-11T02:30:59.464Z,9.14
2023-02-11T02:33:48.811Z,9.14
2023-02-11T02:36:23.985Z,8.99
2023-02-11T02:38:58.243Z,8.99
2023-02-11T02:41:30.974Z,9.09
2023-02-11T02:43:58.851Z,9.41
2023-02-11T02:46:28.442Z,9.68
2023-02-11T02:48:58.354Z,9.71
2023-02-11T02:51:57.209Z,9.91
2023-02-11T02:54:39.113Z,10.14
2023-02-11T02:57:20.794Z,10.42
2023-02-11T03:00:16.796Z,10.52
2023-02-11T03:03:01.855Z,10.62
2023-02-11T03:05:40.321Z,10.78
2023-02-11T03:08:15.234Z,10.78
2023-02-11T03:10:47.176Z,10.89
2023-02-11T03:13:18.193Z,10.93
2023-02-11T03:15:51.268Z,10.94
2023-02-11T03:18:23.774Z,11.02
2023-02-11T03:20:56.824Z,10.92
2023-02-11T03:23:31.033Z,10.90
2023-02-11T03:26:03.633Z,10.86
2023-02-11T03:28:38.655Z,10.70
2023-02-11T03:31:14.948Z,10.39
2023-02-11T03:33:55.178Z,10.33
2023-02-11T03:36:32.952Z,10.35
2023-02-11T03:39:04.262Z,10.28
2023-02-11T03:41:35.619Z,10.17
2023-02-11T03:44:06.314Z,10.10
2023-02-11T03:46:39.291Z,10.01
2023-02-11T03:49:13.928Z,10.31
2023-02-11T03:51:44.335Z,10.12
2023-02-11T03:54:18.303Z,9.96
2023-02-11T03:56:52.596Z,10.06
2023-02-11T03:59:19.759Z,9.98
2023-02-11T04:01:48.244Z,9.89
2023-02-11T04:04:15.537Z,9.84
2023-02-11T04:06:44.321Z,9.60
2023-02-11T04:09:11.998Z,9.82
2023-02-11T04:11:39.194Z,9.96
2023-02-11T04:14:06.396Z,10.02
2023-02-11T04:16:33.603Z,9.86
2023-02-11T04:19:00.782Z,10.03
2023-02-11T04:21:27.954Z,9.88
2023-02-11T04:23:56.713Z,9.86
2023-02-11T04:26:24.435Z,9.60
2023-02-11T04:28:51.574Z,9.68
2023-02-11T04:31:18.780Z,9.58
2023-02-11T04:33:46.086Z,9.68
2023-02-11T04:36:13.638Z,9.74
2023-02-11T04:38:40.958Z,9.68
2023-02-11T04:41:09.618Z,9.67
2023-02-11T04:43:36.882Z,9.58
2023-02-11T04:46:04.333Z,9.57
2023-02-11T04:48:31.577Z,9.39
2023-02-11T04:50:58.776Z,9.22
2023-02-11T04:53:26.260Z,9.04
2023-02-11T04:55:53.520Z,9.05
2023-02-11T04:58:22.301Z,9.18
2023-02-11T05:00:49.396Z,8.96
2023-02-11T05:03:16.924Z,8.90
2023-02-11T05:05:44.377Z,9.13
2023-02-11T05:08:11.588Z,9.11
2023-02-11T05:10:38.859Z,9.21
2023-02-11T05:13:06.021Z,9.28
2023-02-11T05:15:34.634Z,9.30
2023-02-11T05:18:01.875Z,9.31
2023-02-11T05:20:29.123Z,9.34
2023-02-11T05:22:56.235Z,9.41
2023-02-11T05:25:23.399Z,9.58
2023-02-11T05:27:50.542Z,9.27
2023-02-11T05:30:17.894Z,9.08
2023-02-11T05:32:46.536Z,9.14
2023-02-11T05:35:13.897Z,9.06
2023-02-11T05:37:41.195Z,8.95
2023-02-11T05:40:09.537Z,8.89
2023-02-11T05:42:36.678Z,8.86
2023-02-11T05:45:04.519Z,8.90
2023-02-11T05:47:31.860Z,8.87
2023-02-11T05:50:00.580Z,8.82
2023-02-11T05:52:27.676Z,8.81
2023-02-11T05:54:54.877Z,8.92
2023-02-11T05:57:22.076Z,8.61
2023-02-11T05:59:49.261Z,8.62
2023-02-11T06:02:16.431Z,8.62
2023-02-11T06:04:43.694Z,8.65
2023-02-11T06:07:12.193Z,8.68
2023-02-11T06:09:39.421Z,8.83
2023-02-11T06:12:06.959Z,8.99
2023-02-11T06:14:34.352Z,9.10
2023-02-11T06:17:02.030Z,8.99
2023-02-11T06:19:29.195Z,9.20
2023-02-11T06:21:56.745Z,9.31
2023-02-11T06:24:48.056Z,9.17
2023-02-11T06:27:12.721Z,9.02
2023-02-11T06:29:39.919Z,9.06
2023-02-11T06:32:08.656Z,9.26
2023-02-11T06:34:39.195Z,9.23
2023-02-11T06:37:06.776Z,9.11
2023-02-11T06:39:35.499Z,9.18
2023-02-11T06:42:02.638Z,8.99
2023-02-11T06:44:29.828Z,9.31
2023-02-11T06:46:57.037Z,9.32
2023-02-11T06:49:24.183Z,9.38
2023-02-11T06:51:51.258Z,9.44
2023-02-11T06:54:18.557Z,9.16
2023-02-11T06:56:47.198Z,8.96
2023-02-11T06:59:16.711Z,8.94
2023-02-11T07:01:43.956Z,8.79
2023-02-11T07:04:11.136Z,8.62
2023-02-11T07:06:38.296Z,8.68
2023-02-11T07:09:05.805Z,8.83
2023-02-11T07:11:33.677Z,8.59
2023-02-11T07:14:04.582Z,8.69
2023-02-11T07:16:32.887Z,8.80
2023-02-11T07:19:00.093Z,8.98
2023-02-11T07:21:27.336Z,9.02
2023-02-11T07:23:55.375Z,8.98
2023-02-11T07:26:24.381Z,8.95
2023-02-11T07:28:52.856Z,9.02
2023-02-11T07:31:25.078Z,9.55
2023-02-11T07:33:54.259Z,9.87
2023-02-11T07:36:22.850Z,10.05
2023-02-11T07:38:50.518Z,11.30
2023-02-11T07:41:20.649Z,12.07
2023-02-11T07:43:48.136Z,12.65
2023-02-11T07:46:17.768Z,13.11
2023-02-11T07:48:46.726Z,12.57
2023-02-11T07:51:17.061Z,12.20
2023-02-11T07:53:45.299Z,12.18
2023-02-11T07:56:14.316Z,12.20
2023-02-11T07:58:42.158Z,12.33
2023-02-11T08:01:11.714Z,12.70
2023-02-11T08:03:40.321Z,12.94
2023-02-11T08:06:11.897Z,13.20
2023-02-11T08:08:39.856Z,13.44
2023-02-11T08:11:08.377Z,13.67
2023-02-11T08:13:36.594Z,13.73
2023-02-11T08:16:05.137Z,13.79
2023-02-11T08:18:33.319Z,14.04
2023-02-11T08:21:05.631Z,14.01
2023-02-11T08:23:35.732Z,14.02
2023-02-11T08:26:03.753Z,14.15
2023-02-11T08:28:32.419Z,14.43
2023-02-11T08:31:05.776Z,14.56
2023-02-11T08:33:33.550Z,14.67
2023-02-11T08:36:00.950Z,14.61
2023-02-11T08:38:28.114Z,14.28
2023-02-11T08:40:59.550Z,13.78
2023-02-11T08:43:26.650Z,13.60
2023-02-11T08:45:53.962Z,13.52
2023-02-11T08:48:21.450Z,13.65
2023-02-11T08:50:48.551Z,14.01
2023-02-11T08:53:15.751Z,14.04
2023-02-11T08:55:49.226Z,14.34
2023-02-11T08:58:19.182Z,14.50
2023-02-11T09:00:46.927Z,14.69
2023-02-11T09:03:15.057Z,15.32
2023-02-11T09:05:43.038Z,16.05
2023-02-11T09:08:10.792Z,16.75
2023-02-11T09:10:38.873Z,17.18
2023-02-11T09:13:06.795Z,17.52
2023-02-11T09:15:35.629Z,17.89
2023-02-11T09:18:03.638Z,18.06
2023-02-11T09:20:31.535Z,18.41
2023-02-11T09:22:59.432Z,18.69
2023-02-11T09:25:27.403Z,18.91
2023-02-11T09:27:54.635Z,18.97
2023-02-11T09:30:22.233Z,18.51
2023-02-11T09:32:51.205Z,18.86
2023-02-11T09:35:18.479Z,18.53
2023-02-11T09:37:45.856Z,18.23
2023-02-11T09:40:14.633Z,17.53
2023-02-11T09:42:48.873Z,17.47
2023-02-11T09:45:21.713Z,17.14
2023-02-11T09:47:55.769Z,17.24
2023-02-11T09:50:28.013Z,17.17
2023-02-11T09:53:01.062Z,17.01
2023-02-11T09:55:31.521Z,16.84
2023-02-11T09:57:58.994Z,16.88
2023-02-11T10:00:35.306Z,16.90
2023-02-11T10:03:42.719Z,16.55
2023-02-11T10:06:27.681Z,16.41
2023-02-11T10:09:07.240Z,16.33
2023-02-11T10:11:47.480Z,16.23
2023-02-11T10:14:36.617Z,16.72
2023-02-11T10:17:19.419Z,17.02
2023-02-11T10:20:18.659Z,17.18
2023-02-11T10:22:49.685Z,17.19
2023-02-11T10:25:24.037Z,17.08
2023-02-11T10:27:54.841Z,17.18
2023-02-11T10:30:31.559Z,17.13
2023-02-11T10:33:07.037Z,17.06
2023-02-11T10:35:35.889Z,17.31
2023-02-11T10:38:03.165Z,17.32
2023-02-11T10:40:32.380Z,16.65
2023-02-11T10:43:04.260Z,16.60
2023-02-11T10:45:36.570Z,16.58
2023-02-11T10:48:06.715Z,16.42
2023-02-11T10:50:37.021Z,16.50
2023-02-11T10:53:17.477Z,16.21
2023-02-11T10:55:52.615Z,16.51
2023-02-11T10:58:26.798Z,16.57
2023-02-11T11:00:57.181Z,16.59
2023-02-11T11:03:27.349Z,16.56
2023-02-11T11:06:00.118Z,16.43
2023-02-11T11:08:40.839Z,16.47
2023-02-11T11:11:10.718Z,16.56
2023-02-11T11:13:39.900Z,16.66
2023-02-11T11:16:23.013Z,16.50
2023-02-11T11:18:53.161Z,16.47
2023-02-11T11:21:24.817Z,16.06
2023-02-11T11:23:57.244Z,16.44
2023-02-11T11:26:27.821Z,16.22
2023-02-11T11:29:00.141Z,16.42
2023-02-11T11:31:33.685Z,16.12
2023-02-11T11:34:15.681Z,16.37
2023-02-11T11:36:45.077Z,16.17
2023-02-11T11:39:24.116Z,16.26
2023-02-11T11:41:55.213Z,16.12
2023-02-11T11:44:28.962Z,16.34
2023-02-11T11:47:27.114Z,16.53
2023-02-11T11:50:26.071Z,16.36
2023-02-11T11:53:01.060Z,16.52
2023-02-11T11:55:35.603Z,16.63
2023-02-11T11:58:02.928Z,16.75
2023-02-11T12:00:40.755Z,16.45
2023-02-11T12:03:33.934Z,16.44
2023-02-11T12:06:18.611Z,16.15
2023-02-11T12:09:03.574Z,16.06
2023-02-11T12:11:43.251Z,16.10
2023-02-11T12:14:24.333Z,16.18
2023-02-11T12:17:03.232Z,16.26
2023-02-11T12:20:03.026Z,16.04
2023-02-11T12:22:50.010Z,15.61
2023-02-11T12:25:28.350Z,15.62
2023-02-11T12:28:10.940Z,15.73
2023-02-11T12:30:54.411Z,15.72
2023-02-11T12:33:41.015Z,15.72
2023-02-11T12:36:21.094Z,15.70
2023-02-11T12:39:10.654Z,15.57
2023-02-11T12:42:16.877Z,15.64
2023-02-11T12:45:03.407Z,15.85
2023-02-11T12:47:45.593Z,15.74
2023-02-11T12:50:25.063Z,15.46
2023-02-11T12:53:10.743Z,15.60
2023-02-11T12:55:46.013Z,15.63
2023-02-11T12:58:27.328Z,15.56
2023-02-11T13:01:04.901Z,15.90
2023-02-11T13:03:43.053Z,15.98
2023-02-11T13:06:15.526Z,15.95
2023-02-11T13:08:48.509Z,15.99
2023-02-11T13:11:21.527Z,15.46
2023-02-11T13:13:57.507Z,15.05
2023-02-11T13:16:36.411Z,14.91
2023-02-11T13:19:18.809Z,15.19
2023-02-11T13:22:13.781Z,15.20
2023-02-11T13:24:47.253Z,14.93
2023-02-11T13:27:29.017Z,14.58
2023-02-11T13:30:27.627Z,14.87
2023-02-11T13:33:19.996Z,14.98
2023-02-11T13:36:10.024Z,14.71
2023-02-11T13:38:38.290Z,14.74
2023-02-11T13:41:15.268Z,14.84
2023-02-11T13:43:43.951Z,14.82
2023-02-11T13:46:15.266Z,14.93
2023-02-11T13:48:49.116Z,16.06
2023-02-11T13:51:19.784Z,16.75
2023-02-11T13:53:51.843Z,17.47
2023-02-11T13:56:30.500Z,17.27
2023-02-11T13:59:01.853Z,16.54
2023-02-11T14:01:58.989Z,16.60
2023-02-11T14:04:27.843Z,15.81
2023-02-11T14:07:25.706Z,15.72
2023-02-11T14:09:53.043Z,15.23
2023-02-11T14:12:34.908Z,15.13
2023-02-11T14:15:21.752Z,14.98
2023-02-11T14:17:48.993Z,15.04
2023-02-11T14:20:41.286Z,14.96
2023-02-11T14:23:26.650Z,14.93
2023-02-11T14:26:06.088Z,14.67
2023-02-11T14:28:33.737Z,14.72
2023-02-11T14:31:10.430Z,14.67
2023-02-11T14:34:09.106Z,14.40
2023-02-11T14:37:03.217Z,14.53
2023-02-11T14:39:48.507Z,14.31
2023-02-11T14:42:20.326Z,14.40
2023-02-11T14:44:50.890Z,14.44
2023-02-11T14:47:21.441Z,14.48
2023-02-11T14:49:49.972Z,14.66
2023-02-11T14:52:27.593Z,14.52
2023-02-11T14:55:06.554Z,14.28
2023-02-11T14:57:33.871Z,14.37
2023-02-11T15:00:05.953Z,14.54
2023-02-11T15:02:36.613Z,14.55
2023-02-11T15:05:23.328Z,14.29
2023-02-11T15:07:55.970Z,14.30
2023-02-11T15:10:30.858Z,14.22
2023-02-11T15:13:00.831Z,14.24
2023-02-11T15:15:29.289Z,14.25
2023-02-11T15:18:01.462Z,14.20
2023-02-11T15:20:32.093Z,13.95
2023-02-11T15:23:06.089Z,14.12
2023-02-11T15:25:34.369Z,14.18
2023-02-11T15:28:01.713Z,14.19
2023-02-11T15:30:32.828Z,14.12
2023-02-11T15:33:02.008Z,14.14
2023-02-11T15:35:31.300Z,14.12
2023-02-11T15:38:01.173Z,14.15
2023-02-11T15:40:31.488Z,14.10
2023-02-11T15:43:00.405Z,14.13
2023-02-11T15:45:31.696Z,14.11
2023-02-11T15:48:13.998Z,14.05
2023-02-11T15:50:43.315Z,14.08
2023-02-11T15:53:25.949Z,14.04
2023-02-11T15:56:03.528Z,14.09
2023-02-11T15:58:36.529Z,14.07
2023-02-11T16:01:04.440Z,14.14
2023-02-11T16:03:31.859Z,14.13
2023-02-11T16:06:21.096Z,14.14
2023-02-11T16:09:02.505Z,14.08
2023-02-11T16:11:31.810Z,13.99
2023-02-11T16:14:00.710Z,14.02
2023-02-11T16:16:31.380Z,13.95
2023-02-11T16:19:05.192Z,13.88
2023-02-11T16:21:36.691Z,13.90
2023-02-11T16:24:08.292Z,13.96
2023-02-11T16:26:39.467Z,13.95
2023-02-11T16:29:11.445Z,13.90
2023-02-11T16:31:41.566Z,13.94
2023-02-11T16:34:14.810Z,13.80
2023-02-11T16:36:42.148Z,13.81
2023-02-11T16:39:12.644Z,13.77
2023-02-11T16:41:39.865Z,13.70
2023-02-11T16:44:07.446Z,13.73
2023-02-11T16:46:36.656Z,13.72
2023-02-11T16:49:10.491Z,13.67
2023-02-11T16:51:40.959Z,13.62
2023-02-11T16:54:15.545Z,13.62
2023-02-11T16:56:43.848Z,13.58
2023-02-11T16:59:11.084Z,13.49
2023-02-11T17:01:41.025Z,13.45
2023-02-11T17:04:15.649Z,13.42
2023-02-11T17:06:42.845Z,13.38
2023-02-11T17:09:15.585Z,13.34
2023-02-11T17:11:44.242Z,13.30
2023-02-11T17:14:11.451Z,13.45
2023-02-11T17:16:38.576Z,13.41
2023-02-11T17:19:06.234Z,13.42
2023-02-11T17:21:33.610Z,13.30
2023-02-11T17:24:00.739Z,13.20
2023-02-11T17:26:27.903Z,13.11
2023-02-11T17:28:56.579Z,13.07
2023-02-11T17:31:23.804Z,13.06
2023-02-11T17:33:50.968Z,12.97
2023-02-11T17:36:18.140Z,12.93
2023-02-11T17:38:45.391Z,12.88
2023-02-11T17:41:12.776Z,12.76
2023-02-11T17:43:39.961Z,12.69
2023-02-11T17:46:09.503Z,12.62
2023-02-11T17:48:37.681Z,12.54
2023-02-11T17:51:05.560Z,12.53
2023-02-11T17:53:32.706Z,12.49
2023-02-11T17:56:02.240Z,12.46
2023-02-11T17:58:29.441Z,12.45
2023-02-11T18:00:59.178Z,12.39
2023-02-11T18:03:28.061Z,12.46
2023-02-11T18:06:00.463Z,12.48
2023-02-11T18:08:27.676Z,12.33
2023-02-11T18:10:54.881Z,12.21
2023-02-11T18:13:22.161Z,12.15
2023-02-11T18:15:49.642Z,12.15
2023-02-11T18:18:17.060Z,12.24
2023-02-11T18:20:45.920Z,12.18
2023-02-11T18:23:13.511Z,12.13
2023-02-11T18:25:42.020Z,12.07
2023-02-11T18:28:09.404Z,12.05
2023-02-11T18:30:36.590Z,11.96
2023-02-11T18:33:03.984Z,12.01
2023-02-11T18:35:31.164Z,12.05
2023-02-11T18:37:59.807Z,11.90
2023-02-11T18:40:27.325Z,11.81
2023-02-11T18:42:54.526Z,11.90
2023-02-11T18:45:21.746Z,11.96
2023-02-11T18:47:48.847Z,11.87
2023-02-11T18:50:16.147Z,11.87
2023-02-11T18:52:43.369Z,11.88
2023-02-11T18:55:12.120Z,11.95
2023-02-11T18:57:39.427Z,11.90
2023-02-11T19:00:08.097Z,11.81
2023-02-11T19:02:35.391Z,11.83
2023-02-11T19:05:03.764Z,11.72
2023-02-11T19:07:30.866Z,11.69
2023-02-11T19:09:58.027Z,11.69
2023-02-11T19:12:26.810Z,11.62
2023-02-11T19:14:54.083Z,11.66
2023-02-11T19:17:21.286Z,11.62
2023-02-11T19:19:48.469Z,11.56
2023-02-11T19:22:15.665Z,11.60
2023-02-11T19:24:42.790Z,11.73
2023-02-11T19:27:10.525Z,11.59
2023-02-11T19:29:39.249Z,11.66
2023-02-11T19:32:07.236Z,11.64
2023-02-11T19:34:47.591Z,11.66
2023-02-11T19:37:15.827Z,11.61
2023-02-11T19:39:44.418Z,11.65
2023-02-11T19:42:12.129Z,11.59
2023-02-11T19:44:40.968Z,11.49
2023-02-11T19:47:08.275Z,11.40
2023-02-11T19:49:35.528Z,11.33
2023-02-11T19:52:02.769Z,11.26
2023-02-11T19:54:30.544Z,11.31
2023-02-11T19:56:58.224Z,11.44
2023-02-11T19:59:25.465Z,11.37
2023-02-11T20:01:54.149Z,11.27
2023-02-11T20:04:21.485Z,11.13
2023-02-11T20:06:48.725Z,11.18
2023-02-11T20:09:16.224Z,11.18
2023-02-11T20:11:43.440Z,11.08
2023-02-11T20:14:13.603Z,11.07
2023-02-11T20:16:48.705Z,11.00
2023-02-11T20:19:22.145Z,10.95
2023-02-11T20:21:52.685Z,10.98
2023-02-11T20:24:20.706Z,10.84
2023-02-11T20:26:49.072Z,10.89
2023-02-11T20:29:17.334Z,10.95
2023-02-11T20:31:45.371Z,10.86
2023-02-11T20:34:12.895Z,10.87
2023-02-11T20:36:42.029Z,10.88
2023-02-11T20:39:11.458Z,10.80
2023-02-11T20:41:38.899Z,10.88
2023-02-11T20:44:08.707Z,10.96
2023-02-11T20:46:38.955Z,10.91
2023-02-11T20:49:06.439Z,10.86
2023-02-11T20:51:34.730Z,10.77
2023-02-11T20:54:04.093Z,10.81
2023-02-11T20:56:33.561Z,10.75
2023-02-11T20:59:02.047Z,10.81
2023-02-11T21:01:32.083Z,10.72
2023-02-11T21:04:01.775Z,10.68
2023-02-11T21:06:36.041Z,10.73
2023-02-11T21:09:05.965Z,10.81
2023-02-11T21:11:33.369Z,10.85
2023-02-11T21:14:01.403Z,10.84
2023-02-11T21:16:29.396Z,10.78
2023-02-11T21:18:56.795Z,10.91
2023-02-11T21:21:24.549Z,10.77
2023-02-11T21:23:51.806Z,10.82
2023-02-11T21:26:20.365Z,10.79
2023-02-11T21:28:47.846Z,10.76
2023-02-11T21:31:20.855Z,10.87
2023-02-11T21:33:48.521Z,10.88
2023-02-11T21:36:15.800Z,10.85
2023-02-11T21:38:43.327Z,10.80
2023-02-11T21:41:10.573Z,10.88
2023-02-11T21:43:39.206Z,10.94
2023-02-11T21:46:12.762Z,10.79
2023-02-11T21:48:40.052Z,10.78
2023-02-11T21:51:09.691Z,10.78
2023-02-11T21:53:36.867Z,10.78
2023-02-11T21:56:06.188Z,10.82
2023-02-11T21:58:33.493Z,10.72
2023-02-11T22:01:02.327Z,10.69
2023-02-11T22:03:29.651Z,10.71
2023-02-11T22:05:57.467Z,10.51
2023-02-11T22:08:24.940Z,10.47
2023-02-11T22:10:52.271Z,10.53
2023-02-11T22:13:19.691Z,10.50
2023-02-11T22:15:58.174Z,10.53
2023-02-11T22:18:27.336Z,10.51
2023-02-11T22:20:59.330Z,10.46
2023-02-11T22:23:26.577Z,10.47
2023-02-11T22:25:54.105Z,10.48
2023-02-11T22:28:22.044Z,10.39
2023-02-11T22:30:53.643Z,10.33
2023-02-11T22:33:21.205Z,10.32
2023-02-11T22:35:50.184Z,10.31
2023-02-11T22:38:17.463Z,10.32
2023-02-11T22:40:45.167Z,10.22
2023-02-11T22:43:12.322Z,10.12
2023-02-11T22:45:40.085Z,10.20
2023-02-11T22:48:07.380Z,10.18
2023-02-11T22:50:35.160Z,10.18
2023-02-11T22:53:03.903Z,10.33
2023-02-11T22:55:31.070Z,10.28
2023-02-11T23:01:11.992Z,10.27
2023-02-11T23:03:39.999Z,10.27
2023-02-11T23:06:26.814Z,10.23
2023-02-11T23:08:56.944Z,10.50
2023-02-11T23:11:31.381Z,10.43
2023-02-11T23:13:59.525Z,10.44
2023-02-11T23:16:29.927Z,10.39
2023-02-11T23:19:00.174Z,10.36
2023-02-11T23:21:30.420Z,10.30
2023-02-11T23:24:01.940Z,10.33
2023-02-11T23:26:29.435Z,10.98
2023-02-11T23:28:58.333Z,10.92
2023-02-11T23:31:28.401Z,10.83
2023-02-11T23:33:56.221Z,10.80
2023-02-11T23:36:23.808Z,10.73
2023-02-11T23:38:51.116Z,10.75
2023-02-11T23:41:20.252Z,10.77
2023-02-11T23:44:02.384Z,10.86
2023-02-11T23:46:30.470Z,10.78
2023-02-11T23:48:57.750Z,10.80
2023-02-11T23:51:25.107Z,10.59
2023-02-11T23:53:52.640Z,10.59
2023-02-11T23:56:25.312Z,10.52
2023-02-11T23:58:55.746Z,10.58
